Time;durP1;ratioP1;P1;durP2;ratioP2;P2;SDS_P1;SDS_P2;PMS_P1;PMS_P2;Temp;Humidity;BMP_temperature;BMP_pressure;BME280_temperature;BME280_humidity;BME280_pressure;Samples;Min_cycle;Max_cycle;Signal;HPM_P1;HPM_P2
2021/08/19 00:00:35;;;;;;;;;;;16.70;99.90;;;;;;4934606;28;19923;-82
2021/08/19 00:03:01;;;;;;;;;;;16.70;99.90;;;;;;4949495;28;20472;-82
2021/08/19 00:05:27;;;;;;;;;;;16.70;99.90;;;;;;4951569;28;20756;-81
2021/08/19 00:07:53;;;;;;;;;;;16.70;99.90;;;;;;4966399;28;19926;-81
2021/08/19 00:10:21;;;;;;;;;;;16.70;99.90;;;;;;4937043;28;19937;-80
2021/08/19 00:12:47;;;;;;;;;;;16.70;99.90;;;;;;4964599;28;20349;-81
2021/08/19 00:15:13;;;;;;;;;;;16.70;99.90;;;;;;4949932;28;19979;-82
2021/08/19 00:17:39;;;;;;;;;;;16.70;99.90;;;;;;4957200;28;19949;-81
2021/08/19 00:20:05;;;;;;;;;;;16.70;99.90;;;;;;4949248;28;19933;-81
2021/08/19 00:22:31;;;;;;;;;;;16.70;99.90;;;;;;4935624;29;19965;-81
2021/08/19 00:24:58;;;;;;;;;;;16.70;99.90;;;;;;4934017;28;19998;-81
2021/08/19 00:27:27;;;;;;;;;;;16.70;99.90;;;;;;4933975;28;19934;-82
2021/08/19 00:29:52;;;;;;;;;;;16.70;99.90;;;;;;4949339;28;19922;-82
2021/08/19 00:35:28;;;;;;;;;;;16.70;99.90;;;;;;4951911;28;20301;-81
2021/08/19 00:37:55;;;;;;;;;;;16.70;99.90;;;;;;4935091;28;19931;-82
2021/08/19 00:40:20;;;;;;;;;;;16.70;99.90;;;;;;4933457;28;19981;-81
2021/08/19 00:42:46;;;;;;;;;;;16.70;99.90;;;;;;4949516;28;20627;-82
2021/08/19 00:45:12;;;;;;;;;;;16.70;99.90;;;;;;4934008;28;19929;-82
2021/08/19 00:47:41;;;;;;;;;;;16.70;99.90;;;;;;4950583;28;20398;-82
2021/08/19 00:50:08;;;;;;;;;;;16.70;99.90;;;;;;4917484;28;20275;-82
2021/08/19 00:52:35;;;;;;;;;;;16.70;99.90;;;;;;4951091;28;20025;-82
2021/08/19 00:55:02;;;;;;;;;;;16.70;99.90;;;;;;4951059;28;19973;-81
2021/08/19 00:57:28;;;;;;;;;;;16.80;99.90;;;;;;4949284;28;19923;-82
2021/08/19 00:59:54;;;;;;;;;;;16.70;99.90;;;;;;4950857;28;19928;-82
2021/08/19 01:02:20;;;;;;;;;;;16.70;99.90;;;;;;4950213;28;19926;-82
2021/08/19 01:04:46;;;;;;;;;;;16.70;99.90;;;;;;4968693;28;20378;-81
2021/08/19 01:07:12;;;;;;;;;;;16.70;99.90;;;;;;4966780;28;20024;-82
2021/08/19 01:09:39;;;;;;;;;;;16.80;99.90;;;;;;4968867;28;20024;-81
2021/08/19 01:12:05;;;;;;;;;;;16.70;99.90;;;;;;4969149;28;20406;-81
2021/08/19 01:14:31;;;;;;;;;;;16.70;99.90;;;;;;4952325;28;19930;-82
2021/08/19 01:16:57;;;;;;;;;;;16.70;99.90;;;;;;4950313;28;19926;-82
2021/08/19 01:19:23;;;;;;;;;;;16.70;99.90;;;;;;4952426;28;20017;-82
2021/08/19 01:21:50;;;;;;;;;;;16.70;99.90;;;;;;4953731;28;20278;-81
2021/08/19 01:24:15;;;;;;;;;;;16.70;99.90;;;;;;4970929;28;19930;-82
2021/08/19 01:26:41;;;;;;;;;;;16.70;99.90;;;;;;4956284;28;20420;-81
2021/08/19 01:29:09;;;;;;;;;;;16.70;99.90;;;;;;4955687;28;19937;-82
2021/08/19 01:31:35;;;;;;;;;;;16.70;99.90;;;;;;4970867;28;19933;-82
2021/08/19 01:34:01;;;;;;;;;;;16.70;99.90;;;;;;4972093;28;19950;-82
2021/08/19 01:36:27;;;;;;;;;;;16.60;99.90;;;;;;4972849;28;19922;-81
2021/08/19 01:38:54;;;;;;;;;;;16.70;99.90;;;;;;4973371;28;19936;-82
2021/08/19 01:41:20;;;;;;;;;;;16.70;99.90;;;;;;4970534;28;20012;-81
2021/08/19 01:43:46;;;;;;;;;;;16.70;99.90;;;;;;4971173;28;19922;-82
2021/08/19 01:46:13;;;;;;;;;;;16.70;99.90;;;;;;4970331;28;19969;-82
2021/08/19 01:48:45;;;;;;;;;;;16.60;99.90;;;;;;4956605;28;20013;-81
2021/08/19 01:51:13;;;;;;;;;;;16.60;99.90;;;;;;4953252;28;19926;-82
2021/08/19 01:53:42;;;;;;;;;;;16.60;99.90;;;;;;4953666;28;20013;-82
2021/08/19 01:56:08;;;;;;;;;;;16.60;99.90;;;;;;4952247;28;19933;-82
2021/08/19 01:58:34;;;;;;;;;;;16.60;99.90;;;;;;4951326;28;20290;-82
2021/08/19 02:00:59;;;;;;;;;;;16.60;99.90;;;;;;4955353;28;19973;-82
2021/08/19 02:03:26;;;;;;;;;;;16.60;99.90;;;;;;4971608;28;20717;-82
2021/08/19 02:05:53;;;;;;;;;;;16.60;99.90;;;;;;4971430;28;19926;-82
2021/08/19 02:08:19;;;;;;;;;;;16.60;99.90;;;;;;4970906;28;19926;-82
2021/08/19 02:10:45;;;;;;;;;;;16.60;99.90;;;;;;4971315;28;20020;-82
2021/08/19 02:13:11;;;;;;;;;;;16.60;99.90;;;;;;4962280;28;20013;-82
2021/08/19 02:15:37;;;;;;;;;;;16.60;99.90;;;;;;4952215;28;19926;-82
2021/08/19 02:18:03;;;;;;;;;;;16.60;99.90;;;;;;4953099;28;20218;-82
2021/08/19 02:20:29;;;;;;;;;;;16.50;99.90;;;;;;4936997;29;19922;-82
2021/08/19 02:22:59;;;;;;;;;;;16.50;99.90;;;;;;4935983;28;19926;-82
2021/08/19 02:25:25;;;;;;;;;;;16.50;99.90;;;;;;4953680;28;20009;-82
2021/08/19 02:27:51;;;;;;;;;;;16.50;99.90;;;;;;4964562;28;20099;-82
2021/08/19 02:30:16;;;;;;;;;;;16.50;99.90;;;;;;4970397;28;20424;-82
2021/08/19 02:32:42;;;;;;;;;;;16.50;99.90;;;;;;4954551;28;19937;-82
2021/08/19 02:35:08;;;;;;;;;;;16.50;99.90;;;;;;4970024;28;19958;-81
2021/08/19 02:37:34;;;;;;;;;;;16.50;99.90;;;;;;4969024;28;20301;-81
2021/08/19 02:40:01;;;;;;;;;;;16.50;99.90;;;;;;4938811;28;20397;-82
2021/08/19 02:42:26;;;;;;;;;;;16.50;99.90;;;;;;4969862;28;19926;-82
2021/08/19 02:44:52;;;;;;;;;;;16.50;99.90;;;;;;4971656;28;19922;-82
2021/08/19 02:47:18;;;;;;;;;;;16.50;99.90;;;;;;4954352;28;19977;-82
2021/08/19 02:49:44;;;;;;;;;;;16.50;99.90;;;;;;4938475;28;19936;-82
2021/08/19 02:52:10;;;;;;;;;;;16.50;99.90;;;;;;4939735;28;19953;-83
2021/08/19 02:54:36;;;;;;;;;;;16.50;99.90;;;;;;4954173;28;19968;-81
2021/08/19 02:57:01;;;;;;;;;;;16.50;99.90;;;;;;4939531;28;19937;-82
2021/08/19 02:59:27;;;;;;;;;;;16.50;99.90;;;;;;4954292;28;19926;-81
2021/08/19 03:01:53;;;;;;;;;;;16.50;99.90;;;;;;4953907;28;20033;-83
2021/08/19 03:04:19;;;;;;;;;;;16.50;99.90;;;;;;4937963;28;20012;-81
2021/08/19 03:06:45;;;;;;;;;;;16.50;99.90;;;;;;4939002;28;19926;-82
2021/08/19 03:09:10;;;;;;;;;;;16.40;99.90;;;;;;4971630;28;19953;-82
2021/08/19 03:11:36;;;;;;;;;;;16.40;99.90;;;;;;4937988;28;20799;-81
2021/08/19 03:14:02;;;;;;;;;;;16.40;99.90;;;;;;4985070;28;19926;-81
2021/08/19 03:16:28;;;;;;;;;;;16.40;99.90;;;;;;4972540;28;19926;-82
2021/08/19 03:18:53;;;;;;;;;;;16.40;99.90;;;;;;4973370;28;20420;-81
2021/08/19 03:21:20;;;;;;;;;;;16.30;99.90;;;;;;4955266;28;19921;-81
2021/08/19 03:23:47;;;;;;;;;;;16.30;99.90;;;;;;4972961;28;20297;-82
2021/08/19 03:26:15;;;;;;;;;;;16.30;99.90;;;;;;4990270;28;19925;-82
2021/08/19 03:28:44;;;;;;;;;;;16.30;99.90;;;;;;4960108;28;19925;-82
2021/08/19 03:31:10;;;;;;;;;;;16.30;99.90;;;;;;4953778;28;20386;-82
2021/08/19 03:33:38;;;;;;;;;;;16.30;99.90;;;;;;4937830;28;19933;-82
2021/08/19 03:36:05;;;;;;;;;;;16.30;99.90;;;;;;4971585;28;19928;-82
2021/08/19 03:38:31;;;;;;;;;;;16.40;99.90;;;;;;4941948;28;19957;-82
2021/08/19 03:40:58;;;;;;;;;;;16.40;99.90;;;;;;4972017;28;20024;-81
2021/08/19 03:43:27;;;;;;;;;;;16.40;99.90;;;;;;4956775;28;19984;-82
2021/08/19 03:45:53;;;;;;;;;;;16.40;99.90;;;;;;4972354;28;19929;-82
2021/08/19 03:48:19;;;;;;;;;;;16.40;99.90;;;;;;4989124;28;19929;-82
2021/08/19 03:50:44;;;;;;;;;;;16.50;99.90;;;;;;4955574;28;19948;-82
2021/08/19 03:53:11;;;;;;;;;;;16.40;99.90;;;;;;4941959;28;20394;-81
2021/08/19 03:55:37;;;;;;;;;;;16.40;99.90;;;;;;4953598;28;19926;-82
2021/08/19 03:58:03;;;;;;;;;;;16.40;99.90;;;;;;4956809;28;19926;-82
2021/08/19 04:00:30;;;;;;;;;;;16.40;99.90;;;;;;4970646;28;19929;-82
2021/08/19 04:02:56;;;;;;;;;;;16.40;99.90;;;;;;4953385;28;20222;-82
2021/08/19 04:05:22;;;;;;;;;;;16.40;99.90;;;;;;4953618;28;19926;-82
2021/08/19 04:07:48;;;;;;;;;;;16.40;99.90;;;;;;4953923;28;19922;-82
2021/08/19 04:10:14;;;;;;;;;;;16.40;99.90;;;;;;4937691;28;19929;-82
2021/08/19 04:12:41;;;;;;;;;;;16.40;99.90;;;;;;4940095;28;19953;-82
2021/08/19 04:15:07;;;;;;;;;;;16.40;99.90;;;;;;4972472;28;19930;-82
2021/08/19 04:17:33;;;;;;;;;;;16.50;99.90;;;;;;4971716;28;19949;-81
2021/08/19 04:19:59;;;;;;;;;;;16.50;99.90;;;;;;4972883;28;20386;-81
2021/08/19 04:22:25;;;;;;;;;;;16.40;99.90;;;;;;4988108;28;19925;-82
2021/08/19 04:24:50;;;;;;;;;;;16.50;99.90;;;;;;4989965;28;20032;-82
2021/08/19 04:27:16;;;;;;;;;;;16.50;99.90;;;;;;4953951;28;19930;-82
2021/08/19 04:29:42;;;;;;;;;;;16.50;99.90;;;;;;4937623;28;19929;-82
2021/08/19 04:32:07;;;;;;;;;;;16.50;99.90;;;;;;4951621;28;20637;-81
2021/08/19 04:34:33;;;;;;;;;;;16.50;99.90;;;;;;4984846;28;20281;-82
2021/08/19 04:36:59;;;;;;;;;;;16.60;99.90;;;;;;4938054;28;19926;-81
2021/08/19 04:39:27;;;;;;;;;;;16.50;99.90;;;;;;4937156;28;20020;-82
2021/08/19 04:41:56;;;;;;;;;;;16.60;99.90;;;;;;4952966;28;19937;-82
2021/08/19 04:44:22;;;;;;;;;;;16.60;99.90;;;;;;4969057;28;19929;-83
2021/08/19 04:46:48;;;;;;;;;;;16.60;99.90;;;;;;4967913;28;19926;-83
2021/08/19 04:49:13;;;;;;;;;;;16.60;99.90;;;;;;4968843;28;19930;-82
2021/08/19 04:51:39;;;;;;;;;;;16.60;99.90;;;;;;4952344;28;19926;-82
2021/08/19 04:54:08;;;;;;;;;;;16.60;99.90;;;;;;4978692;28;19926;-82
2021/08/19 04:56:38;;;;;;;;;;;16.60;99.90;;;;;;4973275;28;19968;-83
2021/08/19 04:59:05;;;;;;;;;;;16.60;99.90;;;;;;4944522;29;19965;-81
2021/08/19 05:01:32;;;;;;;;;;;16.70;99.90;;;;;;4966445;28;20341;-83
2021/08/19 05:03:59;;;;;;;;;;;16.60;99.90;;;;;;4954442;28;19985;-82
2021/08/19 05:06:25;;;;;;;;;;;16.60;99.90;;;;;;4942455;28;19965;-81
2021/08/19 05:08:51;;;;;;;;;;;16.70;99.90;;;;;;4972051;28;19930;-82
2021/08/19 05:11:18;;;;;;;;;;;16.70;99.90;;;;;;4972224;28;19977;-81
2021/08/19 05:13:47;;;;;;;;;;;16.70;99.90;;;;;;4945223;29;19966;-82
2021/08/19 05:16:13;;;;;;;;;;;16.70;99.90;;;;;;4954381;28;19923;-81
2021/08/19 05:18:40;;;;;;;;;;;16.70;99.90;;;;;;4952981;28;20309;-82
2021/08/19 05:21:06;;;;;;;;;;;16.70;99.90;;;;;;4936877;28;20531;-82
2021/08/19 05:23:34;;;;;;;;;;;16.60;99.90;;;;;;4953021;28;19937;-82
2021/08/19 05:26:00;;;;;;;;;;;16.60;99.90;;;;;;4937833;28;19922;-82
2021/08/19 05:28:26;;;;;;;;;;;16.60;99.90;;;;;;4968642;28;19948;-81
2021/08/19 05:30:51;;;;;;;;;;;16.60;99.90;;;;;;4962138;28;19930;-81
2021/08/19 05:33:17;;;;;;;;;;;16.60;99.90;;;;;;4935312;28;19930;-82
2021/08/19 05:35:44;;;;;;;;;;;16.50;99.90;;;;;;4956346;28;19999;-81
2021/08/19 05:38:12;;;;;;;;;;;16.50;99.90;;;;;;4959099;28;19926;-81
2021/08/19 05:40:38;;;;;;;;;;;16.40;99.90;;;;;;4930004;28;20286;-81
2021/08/19 05:43:06;;;;;;;;;;;16.40;99.90;;;;;;4957564;28;19944;-82
2021/08/19 05:45:34;;;;;;;;;;;16.40;99.90;;;;;;4961873;28;20378;-82
2021/08/19 05:48:03;;;;;;;;;;;16.40;99.90;;;;;;4955050;28;20002;-81
2021/08/19 05:50:30;;;;;;;;;;;16.40;99.90;;;;;;4938504;28;19926;-82
2021/08/19 05:52:55;;;;;;;;;;;16.40;99.90;;;;;;4946442;28;19926;-82
2021/08/19 05:55:24;;;;;;;;;;;16.40;99.90;;;;;;4956902;28;19931;-81
2021/08/19 05:57:53;;;;;;;;;;;16.40;99.90;;;;;;4952295;28;19927;-81
2021/08/19 06:00:21;;;;;;;;;;;16.50;99.90;;;;;;4935071;28;19933;-81
2021/08/19 06:02:49;;;;;;;;;;;16.40;99.90;;;;;;4939087;28;19926;-82
2021/08/19 06:05:15;;;;;;;;;;;16.40;99.90;;;;;;4957931;28;19930;-80
2021/08/19 06:07:41;;;;;;;;;;;16.40;99.90;;;;;;4963295;28;20311;-82
2021/08/19 06:10:07;;;;;;;;;;;16.30;99.90;;;;;;4956134;28;19930;-82
2021/08/19 06:12:40;;;;;;;;;;;16.20;99.90;;;;;;4941121;28;19926;-81
2021/08/19 06:15:06;;;;;;;;;;;16.20;99.90;;;;;;4950003;28;19933;-81
2021/08/19 06:17:35;;;;;;;;;;;16.10;99.90;;;;;;4953519;28;19931;-81
2021/08/19 06:20:02;;;;;;;;;;;16.10;99.90;;;;;;4939123;28;20271;-82
2021/08/19 06:22:29;;;;;;;;;;;16.00;99.90;;;;;;4954301;28;19922;-81
2021/08/19 06:24:55;;;;;;;;;;;16.00;99.90;;;;;;4943774;28;19926;-81
2021/08/19 06:27:24;;;;;;;;;;;16.00;99.90;;;;;;4937432;28;19949;-81
2021/08/19 06:29:50;;;;;;;;;;;16.00;99.90;;;;;;4929427;28;19938;-82
2021/08/19 06:32:18;;;;;;;;;;;16.10;99.90;;;;;;4962021;28;19922;-81
2021/08/19 06:34:44;;;;;;;;;;;16.10;99.90;;;;;;4969362;28;19922;-80
2021/08/19 06:37:13;;;;;;;;;;;16.20;99.90;;;;;;4970051;28;19926;-81
2021/08/19 06:39:40;;;;;;;;;;;16.20;99.90;;;;;;4953367;28;19922;-81
2021/08/19 06:42:06;;;;;;;;;;;16.20;99.90;;;;;;4954223;28;20020;-82
2021/08/19 06:44:32;;;;;;;;;;;16.20;99.90;;;;;;4957600;28;19977;-82
2021/08/19 06:46:58;;;;;;;;;;;16.20;99.90;;;;;;4958113;28;19977;-81
2021/08/19 06:49:24;;;;;;;;;;;16.20;99.90;;;;;;4952001;28;19926;-81
2021/08/19 06:51:49;;;;;;;;;;;16.20;99.90;;;;;;4954186;28;20005;-82
2021/08/19 06:54:16;;;;;;;;;;;16.20;99.90;;;;;;4939862;28;19950;-81
2021/08/19 06:56:41;;;;;;;;;;;16.20;99.90;;;;;;4946823;28;20011;-81
2021/08/19 06:59:07;;;;;;;;;;;16.20;99.90;;;;;;4953323;28;19941;-81
2021/08/19 07:01:33;;;;;;;;;;;16.20;99.90;;;;;;4956929;28;20436;-81
2021/08/19 07:03:59;;;;;;;;;;;16.30;99.90;;;;;;4942516;28;19925;-81
2021/08/19 07:06:25;;;;;;;;;;;16.30;99.90;;;;;;4958751;28;20404;-81
2021/08/19 07:08:50;;;;;;;;;;;16.30;99.90;;;;;;4972895;28;19921;-81
2021/08/19 07:11:16;;;;;;;;;;;16.30;99.90;;;;;;4954120;28;19922;-81
2021/08/19 07:13:42;;;;;;;;;;;16.30;99.90;;;;;;4949850;28;19929;-81
2021/08/19 07:16:07;;;;;;;;;;;16.30;99.90;;;;;;4973068;28;20024;-82
2021/08/19 07:18:33;;;;;;;;;;;16.30;99.90;;;;;;4963849;28;19929;-82
2021/08/19 07:21:00;;;;;;;;;;;16.40;99.90;;;;;;4953203;28;20620;-81
2021/08/19 07:23:28;;;;;;;;;;;16.40;99.90;;;;;;4976349;28;20461;-82
2021/08/19 07:25:54;;;;;;;;;;;16.50;99.90;;;;;;4955309;28;19925;-81
2021/08/19 07:28:20;;;;;;;;;;;16.50;99.90;;;;;;4971157;28;19992;-82
2021/08/19 07:30:45;;;;;;;;;;;16.50;99.90;;;;;;4954092;28;20457;-81
2021/08/19 07:33:12;;;;;;;;;;;16.50;99.90;;;;;;4955186;28;19949;-81
2021/08/19 07:35:37;;;;;;;;;;;16.60;99.90;;;;;;4954283;28;20036;-81
2021/08/19 07:38:03;;;;;;;;;;;16.60;99.90;;;;;;4969675;28;20356;-81
2021/08/19 07:40:30;;;;;;;;;;;16.60;99.90;;;;;;4970890;28;19972;-81
2021/08/19 07:42:56;;;;;;;;;;;16.70;99.90;;;;;;4970984;28;19930;-81
2021/08/19 07:45:23;;;;;;;;;;;16.70;99.90;;;;;;4954848;28;19987;-81
2021/08/19 07:47:49;;;;;;;;;;;16.70;99.90;;;;;;4954833;28;19933;-81
2021/08/19 07:50:19;;;;;;;;;;;16.70;99.90;;;;;;4973002;28;19926;-82
2021/08/19 07:52:47;;;;;;;;;;;16.80;99.90;;;;;;4971304;28;19933;-82
2021/08/19 07:55:13;;;;;;;;;;;16.90;99.90;;;;;;4971328;28;19926;-82
2021/08/19 07:57:45;;;;;;;;;;;16.90;99.90;;;;;;4953730;28;19929;-82
2021/08/19 08:00:13;;;;;;;;;;;16.90;99.90;;;;;;4954852;28;19921;-81
2021/08/19 08:02:38;;;;;;;;;;;16.90;99.90;;;;;;4970800;28;19928;-82
2021/08/19 08:05:05;;;;;;;;;;;16.90;99.90;;;;;;4953173;28;19922;-82
2021/08/19 08:07:31;;;;;;;;;;;16.90;99.90;;;;;;4954720;28;19932;-81
2021/08/19 08:09:57;;;;;;;;;;;16.90;99.90;;;;;;4937050;28;19957;-80
2021/08/19 08:12:23;;;;;;;;;;;17.00;99.90;;;;;;4921715;28;19930;-82
2021/08/19 08:14:50;;;;;;;;;;;17.00;99.90;;;;;;4972252;28;20033;-82
2021/08/19 08:17:19;;;;;;;;;;;17.00;99.90;;;;;;4970370;28;20447;-82
2021/08/19 08:19:46;;;;;;;;;;;17.00;99.90;;;;;;4956581;28;19932;-82
2021/08/19 08:22:12;;;;;;;;;;;17.10;99.90;;;;;;4989598;28;19925;-81
2021/08/19 08:24:39;;;;;;;;;;;17.10;99.90;;;;;;4972695;28;19932;-82
2021/08/19 08:27:05;;;;;;;;;;;17.10;99.90;;;;;;4956051;28;19921;-81
2021/08/19 08:29:31;;;;;;;;;;;17.10;99.90;;;;;;4976219;28;20374;-81
2021/08/19 08:32:01;;;;;;;;;;;17.10;99.90;;;;;;4958000;28;20401;-83
2021/08/19 08:34:27;;;;;;;;;;;17.10;99.90;;;;;;4957410;28;19922;-82
2021/08/19 08:36:53;;;;;;;;;;;17.20;99.90;;;;;;4974037;28;19933;-82
2021/08/19 08:39:20;;;;;;;;;;;17.20;99.90;;;;;;4956922;28;20460;-81
2021/08/19 08:41:46;;;;;;;;;;;17.20;99.90;;;;;;4969683;28;19984;-82
2021/08/19 08:44:13;;;;;;;;;;;17.10;99.90;;;;;;4979991;28;19931;-82
2021/08/19 08:46:42;;;;;;;;;;;17.10;99.90;;;;;;4974170;28;19929;-82
2021/08/19 08:49:09;;;;;;;;;;;17.00;99.90;;;;;;4972710;28;19930;-81
2021/08/19 08:51:38;;;;;;;;;;;17.00;99.90;;;;;;4973005;28;19957;-81
2021/08/19 08:54:04;;;;;;;;;;;17.00;99.90;;;;;;4972456;28;20275;-82
2021/08/19 08:56:30;;;;;;;;;;;17.10;99.90;;;;;;4970952;28;19929;-82
2021/08/19 08:58:56;;;;;;;;;;;17.10;99.90;;;;;;4956269;28;20441;-81
2021/08/19 09:01:21;;;;;;;;;;;17.20;99.90;;;;;;4955617;28;19932;-82
2021/08/19 09:03:47;;;;;;;;;;;17.30;99.90;;;;;;4953322;28;20021;-82
2021/08/19 09:06:19;;;;;;;;;;;17.30;99.90;;;;;;4952850;28;20383;-81
2021/08/19 09:08:51;;;;;;;;;;;17.30;99.90;;;;;;4953510;28;19973;-82
2021/08/19 09:11:17;;;;;;;;;;;17.30;99.90;;;;;;4952173;28;19926;-80
2021/08/19 09:13:43;;;;;;;;;;;17.20;99.90;;;;;;4961231;28;19926;-82
2021/08/19 09:16:16;;;;;;;;;;;17.10;99.90;;;;;;4962357;28;20354;-81
2021/08/19 09:18:42;;;;;;;;;;;17.10;99.90;;;;;;4973577;28;19945;-81
2021/08/19 09:21:21;;;;;;;;;;;17.00;99.90;;;;;;4971784;28;19930;-81
2021/08/19 09:24:07;;;;;;;;;;;17.00;99.90;;;;;;4973660;28;20714;-81
2021/08/19 09:26:33;;;;;;;;;;;17.00;99.90;;;;;;4970133;28;19925;-82
2021/08/19 09:29:18;;;;;;;;;;;16.90;99.90;;;;;;4971020;28;20401;-82
2021/08/19 09:31:43;;;;;;;;;;;16.90;99.90;;;;;;4969032;28;20334;-81
2021/08/19 09:34:10;;;;;;;;;;;16.90;99.90;;;;;;4953030;28;19932;-82
2021/08/19 09:36:36;;;;;;;;;;;16.80;99.90;;;;;;4953803;28;19949;-81
2021/08/19 09:39:04;;;;;;;;;;;16.80;99.90;;;;;;4952645;28;19923;-81
2021/08/19 09:41:30;;;;;;;;;;;16.80;99.90;;;;;;4952600;28;20073;-81
2021/08/19 09:43:58;;;;;;;;;;;16.80;99.90;;;;;;4936466;28;20016;-82
2021/08/19 09:46:37;;;;;;;;;;;16.70;99.90;;;;;;4954064;28;19988;-82
2021/08/19 09:49:27;;;;;;;;;;;16.70;99.90;;;;;;4936484;28;19930;-82
2021/08/19 09:52:04;;;;;;;;;;;16.70;99.90;;;;;;4954329;28;19930;-81
2021/08/19 09:54:39;;;;;;;;;;;16.60;99.90;;;;;;4973153;28;19922;-81
2021/08/19 09:57:06;;;;;;;;;;;16.60;99.90;;;;;;4971527;28;19933;-81
2021/08/19 09:59:36;;;;;;;;;;;16.60;99.90;;;;;;4968784;28;19926;-81
2021/08/19 10:02:08;;;;;;;;;;;16.70;99.90;;;;;;4952210;28;19930;-82
2021/08/19 10:04:37;;;;;;;;;;;16.70;99.90;;;;;;4964768;28;20374;-82
2021/08/19 10:07:03;;;;;;;;;;;16.70;99.90;;;;;;4953274;28;20009;-81
2021/08/19 10:09:29;;;;;;;;;;;16.70;99.90;;;;;;4951847;28;19922;-82
2021/08/19 10:11:56;;;;;;;;;;;16.60;99.90;;;;;;4953362;28;20408;-82
2021/08/19 10:14:25;;;;;;;;;;;16.50;99.90;;;;;;4968474;28;19922;-81
2021/08/19 10:16:51;;;;;;;;;;;16.60;99.90;;;;;;4969628;28;19926;-82
2021/08/19 10:19:18;;;;;;;;;;;16.60;99.90;;;;;;4971132;28;19926;-82
2021/08/19 10:21:46;;;;;;;;;;;16.50;99.90;;;;;;4972009;28;19926;-82
2021/08/19 10:24:12;;;;;;;;;;;16.50;99.90;;;;;;4971709;28;19923;-82
2021/08/19 10:26:41;;;;;;;;;;;16.60;99.90;;;;;;4970969;28;20305;-82
2021/08/19 10:29:07;;;;;;;;;;;16.50;99.90;;;;;;4948180;28;19923;-82
2021/08/19 10:31:43;;;;;;;;;;;16.60;99.90;;;;;;4946266;28;19984;-83
2021/08/19 10:34:13;;;;;;;;;;;16.60;99.90;;;;;;4971305;28;19922;-82
2021/08/19 10:36:42;;;;;;;;;;;16.70;99.90;;;;;;4967264;28;19922;-82
2021/08/19 10:39:20;;;;;;;;;;;16.80;99.90;;;;;;4970598;28;20403;-82
2021/08/19 10:41:46;;;;;;;;;;;16.80;99.90;;;;;;4970382;28;19994;-81
2021/08/19 10:44:13;;;;;;;;;;;16.80;99.90;;;;;;4969008;28;20401;-82
2021/08/19 10:46:39;;;;;;;;;;;16.80;99.90;;;;;;4970823;28;19930;-82
2021/08/19 10:49:06;;;;;;;;;;;16.80;99.90;;;;;;4970343;28;20397;-82
2021/08/19 10:51:32;;;;;;;;;;;16.80;99.90;;;;;;4969948;28;20004;-82
2021/08/19 10:53:57;;;;;;;;;;;16.80;99.90;;;;;;4970374;28;20393;-82
2021/08/19 10:56:44;;;;;;;;;;;16.80;99.90;;;;;;4964194;28;19922;-81
2021/08/19 10:59:29;;;;;;;;;;;16.80;99.90;;;;;;4959646;28;19922;-82
2021/08/19 11:01:55;;;;;;;;;;;16.70;99.90;;;;;;4970066;28;19922;-82
2021/08/19 11:04:41;;;;;;;;;;;16.50;99.90;;;;;;4968714;28;19929;-83
2021/08/19 11:07:10;;;;;;;;;;;16.40;99.90;;;;;;4954564;28;19970;-82
2021/08/19 11:09:37;;;;;;;;;;;16.50;99.90;;;;;;4969591;28;19933;-82
2021/08/19 11:12:07;;;;;;;;;;;16.40;99.90;;;;;;4968259;28;19937;-82
2021/08/19 11:14:32;;;;;;;;;;;16.50;99.90;;;;;;4952035;28;19930;-82
2021/08/19 11:17:01;;;;;;;;;;;16.50;99.90;;;;;;4950779;28;19927;-82
2021/08/19 11:19:28;;;;;;;;;;;16.50;99.90;;;;;;4950927;28;19930;-81
2021/08/19 11:22:01;;;;;;;;;;;16.50;99.90;;;;;;4950490;28;19918;-82
2021/08/19 11:24:28;;;;;;;;;;;16.50;99.90;;;;;;4962116;28;19929;-83
2021/08/19 11:27:12;;;;;;;;;;;16.60;99.90;;;;;;4959683;28;19961;-83
2021/08/19 11:29:42;;;;;;;;;;;16.60;99.90;;;;;;4966306;28;19926;-82
2021/08/19 11:32:09;;;;;;;;;;;16.60;99.90;;;;;;4970947;28;19930;-82
2021/08/19 11:34:36;;;;;;;;;;;16.60;99.90;;;;;;4956909;28;19930;-82
2021/08/19 11:37:02;;;;;;;;;;;16.60;99.90;;;;;;4951051;28;19927;-81
2021/08/19 11:39:28;;;;;;;;;;;16.70;99.90;;;;;;4950896;28;19926;-81
2021/08/19 11:41:58;;;;;;;;;;;16.70;99.90;;;;;;4935317;28;19926;-82
2021/08/19 11:44:27;;;;;;;;;;;16.70;99.90;;;;;;4965339;28;19926;-81
2021/08/19 11:47:03;;;;;;;;;;;16.70;99.90;;;;;;4970855;28;19974;-82
2021/08/19 11:49:32;;;;;;;;;;;16.80;99.90;;;;;;4953312;28;20306;-82
2021/08/19 11:52:02;;;;;;;;;;;16.90;99.90;;;;;;4938031;28;20024;-82
2021/08/19 11:54:39;;;;;;;;;;;16.90;99.90;;;;;;4953309;28;19961;-81
2021/08/19 11:57:05;;;;;;;;;;;17.00;99.90;;;;;;4952301;28;19930;-82
2021/08/19 11:59:31;;;;;;;;;;;16.90;99.90;;;;;;4937835;28;19933;-82
2021/08/19 12:01:57;;;;;;;;;;;16.90;99.90;;;;;;4917469;28;19927;-82
2021/08/19 12:04:35;;;;;;;;;;;16.90;99.90;;;;;;4948289;28;20714;-82
2021/08/19 12:07:03;;;;;;;;;;;16.80;99.90;;;;;;4953474;28;19951;-81
2021/08/19 12:09:32;;;;;;;;;;;16.80;99.90;;;;;;4968918;28;19926;-82
2021/08/19 12:11:58;;;;;;;;;;;16.70;99.90;;;;;;4951864;28;19926;-81
2021/08/19 12:14:25;;;;;;;;;;;16.40;99.90;;;;;;4953817;28;19962;-83
2021/08/19 12:16:55;;;;;;;;;;;16.20;99.90;;;;;;4934124;28;19927;-82
2021/08/19 12:19:24;;;;;;;;;;;16.20;99.90;;;;;;4951183;28;19933;-81
2021/08/19 12:21:54;;;;;;;;;;;16.20;99.90;;;;;;4918506;28;19926;-82
2021/08/19 12:24:23;;;;;;;;;;;16.10;99.90;;;;;;4949688;28;19926;-81
2021/08/19 12:26:59;;;;;;;;;;;16.10;99.90;;;;;;4953529;28;19929;-81
2021/08/19 12:29:25;;;;;;;;;;;16.00;99.90;;;;;;4952698;28;19941;-82
2021/08/19 12:31:51;;;;;;;;;;;16.00;99.90;;;;;;4952909;28;19926;-82
2021/08/19 12:34:18;;;;;;;;;;;16.10;99.90;;;;;;4952579;28;19933;-82
2021/08/19 12:36:44;;;;;;;;;;;16.10;99.90;;;;;;4952895;28;19969;-82
2021/08/19 12:39:20;;;;;;;;;;;16.10;99.90;;;;;;4953248;28;19926;-82
2021/08/19 12:41:47;;;;;;;;;;;16.10;99.90;;;;;;4953287;28;20293;-82
2021/08/19 12:44:16;;;;;;;;;;;16.10;99.90;;;;;;4936518;28;19961;-80
2021/08/19 12:46:43;;;;;;;;;;;16.10;99.90;;;;;;4928276;28;19922;-81
2021/08/19 12:49:20;;;;;;;;;;;16.20;99.90;;;;;;4918151;28;19965;-81
2021/08/19 12:51:47;;;;;;;;;;;16.10;99.90;;;;;;4934814;28;19977;-82
2021/08/19 12:54:19;;;;;;;;;;;16.10;99.90;;;;;;4918054;28;19926;-82
2021/08/19 12:56:59;;;;;;;;;;;16.00;99.90;;;;;;4951071;28;19929;-82
2021/08/19 12:59:25;;;;;;;;;;;16.10;99.90;;;;;;4918067;29;20003;-82
2021/08/19 13:01:51;;;;;;;;;;;16.20;99.90;;;;;;4933432;28;20390;-82
2021/08/19 13:04:17;;;;;;;;;;;16.20;99.90;;;;;;4948916;28;19927;-83
2021/08/19 13:06:43;;;;;;;;;;;16.10;99.90;;;;;;4950740;28;19926;-82
2021/08/19 13:09:08;;;;;;;;;;;16.20;99.90;;;;;;4933578;28;19922;-83
2021/08/19 13:11:34;;;;;;;;;;;16.20;99.90;;;;;;4918185;28;20016;-82
2021/08/19 13:14:02;;;;;;;;;;;16.10;99.90;;;;;;4948029;28;22518;-82
2021/08/19 13:16:30;;;;;;;;;;;16.00;99.90;;;;;;4943229;28;20354;-82
2021/08/19 13:18:56;;;;;;;;;;;16.00;99.90;;;;;;4921356;28;20144;-82
2021/08/19 13:21:22;;;;;;;;;;;15.90;99.90;;;;;;4959555;28;19929;-82
2021/08/19 13:23:48;;;;;;;;;;;15.90;99.90;;;;;;4940302;28;19926;-82
2021/08/19 13:26:13;;;;;;;;;;;15.90;99.90;;;;;;4954849;28;20370;-82
2021/08/19 13:28:39;;;;;;;;;;;15.90;99.90;;;;;;4924413;28;19973;-82
2021/08/19 13:31:05;;;;;;;;;;;15.90;99.90;;;;;;4920687;28;20325;-82
2021/08/19 13:33:31;;;;;;;;;;;15.90;99.90;;;;;;4904487;28;20458;-81
2021/08/19 13:35:57;;;;;;;;;;;15.90;99.90;;;;;;4951828;28;20332;-82
2021/08/19 13:38:25;;;;;;;;;;;15.90;99.90;;;;;;4935462;28;20371;-82
2021/08/19 13:40:51;;;;;;;;;;;15.90;99.90;;;;;;4920059;28;19922;-82
2021/08/19 13:43:17;;;;;;;;;;;15.90;99.90;;;;;;4909041;28;19982;-82
2021/08/19 13:45:43;;;;;;;;;;;15.80;99.90;;;;;;4972532;28;19986;-81
2021/08/19 13:48:18;;;;;;;;;;;15.80;99.90;;;;;;4955762;28;19930;-82
2021/08/19 13:50:43;;;;;;;;;;;15.80;99.90;;;;;;4959590;28;19964;-82
2021/08/19 13:53:10;;;;;;;;;;;15.90;99.90;;;;;;4974972;28;19926;-82
2021/08/19 13:55:36;;;;;;;;;;;15.90;99.90;;;;;;4974390;28;19932;-82
2021/08/19 13:58:05;;;;;;;;;;;16.00;99.90;;;;;;4973875;28;20381;-82
2021/08/19 14:00:30;;;;;;;;;;;16.00;99.90;;;;;;4958896;28;20348;-82
2021/08/19 14:02:56;;;;;;;;;;;16.10;99.90;;;;;;4942594;28;19930;-83
2021/08/19 14:05:22;;;;;;;;;;;16.00;99.90;;;;;;4955429;28;20397;-82
2021/08/19 14:07:48;;;;;;;;;;;16.00;99.90;;;;;;4955208;28;20400;-83
2021/08/19 14:10:16;;;;;;;;;;;15.90;99.90;;;;;;4955809;28;19926;-83
2021/08/19 14:12:43;;;;;;;;;;;15.80;99.90;;;;;;4965894;28;20576;-82
2021/08/19 14:15:09;;;;;;;;;;;15.90;99.90;;;;;;4955494;28;20021;-83
2021/08/19 14:17:34;;;;;;;;;;;15.80;99.90;;;;;;4954999;28;19922;-81
2021/08/19 14:20:00;;;;;;;;;;;15.80;99.90;;;;;;4955124;28;19926;-82